Time;durP1;ratioP1;P1;durP2;ratioP2;P2;SDS_P1;SDS_P2;PMS_P1;PMS_P2;Temp;Humidity;BMP_temperature;BMP_pressure;BME280_temperature;BME280_humidity;BME280_pressure;Samples;Min_cycle;Max_cycle;Signal;HPM_P1;HPM_P2
2022/01/10 00:00:23;;;;;;;3.93;2.77;;;-0.70;99.90;;;;;;2081734;28;20312;-74
2022/01/10 00:01:28;;;;;;;3.50;2.38;;;-0.70;99.90;;;;;;2089804;28;20242;-75
2022/01/10 00:02:29;;;;;;;4.72;3.05;;;-0.60;99.90;;;;;;2090256;28;20608;-74
2022/01/10 00:03:30;;;;;;;5.43;3.23;;;-0.50;99.90;;;;;;2089815;28;20235;-75
2022/01/10 00:04:30;;;;;;;4.70;3.07;;;-0.50;99.90;;;;;;2081247;28;20185;-74
2022/01/10 00:05:31;;;;;;;4.93;3.40;;;-0.50;99.90;;;;;;2097751;28;20278;-74
2022/01/10 00:06:32;;;;;;;6.10;3.07;;;-0.50;99.90;;;;;;2097675;28;21168;-74
2022/01/10 00:07:32;;;;;;;5.70;3.20;;;-0.50;99.90;;;;;;2097722;28;20548;-75
2022/01/10 00:08:34;;;;;;;4.33;3.00;;;-0.40;99.90;;;;;;2106107;28;20221;-74
2022/01/10 00:09:35;;;;;;;4.70;2.80;;;-0.50;99.90;;;;;;2090233;28;20184;-75
2022/01/10 00:10:36;;;;;;;3.97;2.73;;;-0.60;99.90;;;;;;2089978;28;20188;-76
2022/01/10 00:11:36;;;;;;;3.77;2.87;;;-0.70;99.90;;;;;;2090264;28;20661;-74
2022/01/10 00:12:38;;;;;;;6.67;3.50;;;-0.70;99.90;;;;;;2090025;28;20192;-75
2022/01/10 00:13:38;;;;;;;4.72;3.30;;;-0.70;99.90;;;;;;2089647;28;20208;-74
2022/01/10 00:14:39;;;;;;;5.80;4.07;;;-0.70;99.90;;;;;;2089485;28;20173;-74
2022/01/10 00:15:40;;;;;;;5.07;3.23;;;-0.60;99.90;;;;;;2089939;28;20177;-74
2022/01/10 00:16:41;;;;;;;6.35;4.00;;;-0.50;99.90;;;;;;2089272;28;20191;-74
2022/01/10 00:17:45;;;;;;;5.63;4.00;;;-0.60;99.90;;;;;;2081317;28;20204;-74
2022/01/10 00:18:46;;;;;;;6.18;3.72;;;-0.70;99.90;;;;;;2081719;28;20419;-75
2022/01/10 00:19:47;;;;;;;7.27;3.70;;;-0.70;99.90;;;;;;2080759;28;20182;-74
2022/01/10 00:20:48;;;;;;;4.67;3.23;;;-0.70;99.90;;;;;;2088927;28;20179;-75
2022/01/10 00:21:49;;;;;;;4.35;3.40;;;-0.70;99.90;;;;;;2089414;28;20180;-74
2022/01/10 00:22:51;;;;;;;7.47;3.40;;;-0.70;99.90;;;;;;2080826;28;20181;-74
2022/01/10 00:23:51;;;;;;;4.82;3.55;;;-0.70;99.90;;;;;;2089264;28;20184;-74
2022/01/10 00:24:52;;;;;;;6.43;3.70;;;-0.70;99.90;;;;;;2089612;28;20188;-75
2022/01/10 00:25:53;;;;;;;7.70;3.33;;;-0.70;99.90;;;;;;2090052;28;20176;-74
2022/01/10 00:26:54;;;;;;;5.03;3.63;;;-0.70;99.90;;;;;;2089958;28;20215;-74
2022/01/10 00:27:55;;;;;;;5.40;3.90;;;-0.70;99.90;;;;;;2090034;28;20263;-75
2022/01/10 00:28:56;;;;;;;5.55;3.80;;;-0.70;99.90;;;;;;2089218;28;20605;-74
2022/01/10 00:29:56;;;;;;;7.63;3.60;;;-0.70;99.90;;;;;;2089281;28;20271;-74
2022/01/10 00:30:57;;;;;;;8.47;3.37;;;-0.70;99.90;;;;;;2089354;28;20577;-74
2022/01/10 00:31:58;;;;;;;6.50;3.47;;;-0.70;99.90;;;;;;2089214;28;20173;-74
2022/01/10 00:32:59;;;;;;;4.33;3.20;;;-0.70;99.90;;;;;;2089295;28;20213;-75
2022/01/10 00:33:59;;;;;;;5.83;3.50;;;-0.70;99.90;;;;;;2072864;28;20185;-75
2022/01/10 00:35:00;;;;;;;5.53;3.73;;;-0.60;99.90;;;;;;2080728;28;20169;-74
2022/01/10 00:36:01;;;;;;;5.13;3.07;;;-0.60;99.90;;;;;;2097393;28;20211;-74
2022/01/10 00:37:01;;;;;;;4.93;3.27;;;-0.60;99.90;;;;;;2097598;28;20183;-75
2022/01/10 00:38:02;;;;;;;5.30;2.97;;;-0.60;99.90;;;;;;2097687;28;20663;-75
2022/01/10 00:39:04;;;;;;;5.53;3.83;;;-0.50;99.90;;;;;;2105987;28;20195;-74
2022/01/10 00:40:05;;;;;;;5.22;2.97;;;-0.70;99.90;;;;;;2089199;28;20204;-74
2022/01/10 00:41:06;;;;;;;4.63;2.70;;;-0.70;99.90;;;;;;2089147;28;20542;-74
2022/01/10 00:42:07;;;;;;;4.53;2.70;;;-0.60;99.90;;;;;;2097313;28;20202;-74
2022/01/10 00:43:16;;;;;;;5.17;3.13;;;-0.70;99.90;;;;;;2089130;28;20226;-74
2022/01/10 00:44:24;;;;;;;4.63;2.80;;;-0.70;99.90;;;;;;2089426;28;20248;-74
2022/01/10 00:45:27;;;;;;;5.15;3.08;;;-0.70;99.90;;;;;;2080730;28;20177;-74
2022/01/10 00:46:28;;;;;;;3.95;2.40;;;-0.80;99.90;;;;;;2090990;28;20263;-74
2022/01/10 00:47:29;;;;;;;4.40;2.90;;;-0.70;99.90;;;;;;2097458;28;20223;-74
2022/01/10 00:48:30;;;;;;;3.83;2.50;;;-0.60;99.90;;;;;;2081020;28;20181;-74
2022/01/10 00:49:31;;;;;;;3.07;2.40;;;-0.60;99.90;;;;;;2081255;28;20548;-75
2022/01/10 00:50:33;;;;;;;3.65;2.35;;;-0.70;99.90;;;;;;2089350;28;20194;-75
2022/01/10 00:51:34;;;;;;;3.13;1.92;;;-0.60;99.90;;;;;;2080682;28;20587;-74
2022/01/10 00:52:35;;;;;;;2.63;1.70;;;-0.70;99.90;;;;;;2081032;28;20229;-75
2022/01/10 00:53:36;;;;;;;4.73;2.23;;;-0.60;99.90;;;;;;2089623;28;20190;-74
2022/01/10 00:54:38;;;;;;;3.63;2.22;;;-0.50;99.90;;;;;;2088463;28;20189;-74
2022/01/10 00:55:39;;;;;;;3.70;1.80;;;-0.60;99.90;;;;;;2080981;28;20818;-75
2022/01/10 00:56:39;;;;;;;3.73;1.90;;;-0.50;99.90;;;;;;2080749;28;20262;-74
2022/01/10 00:57:41;;;;;;;3.67;1.70;;;-0.60;99.90;;;;;;2081344;28;20176;-74
2022/01/10 00:58:42;;;;;;;4.28;2.42;;;-0.60;99.90;;;;;;2080847;28;20251;-74
2022/01/10 00:59:42;;;;;;;5.28;2.40;;;-0.60;99.90;;;;;;2080775;28;20185;-75
2022/01/10 01:00:43;;;;;;;2.80;2.40;;;-0.70;99.90;;;;;;2081216;28;20615;-75
2022/01/10 01:01:44;;;;;;;5.20;2.33;;;-0.70;99.90;;;;;;2088930;28;20737;-74
2022/01/10 01:02:45;;;;;;;4.00;2.20;;;-0.70;99.90;;;;;;2088888;28;20745;-74
2022/01/10 01:03:47;;;;;;;6.60;2.57;;;-0.70;99.90;;;;;;2081496;28;20534;-74
2022/01/10 01:04:47;;;;;;;4.45;2.00;;;-0.60;99.90;;;;;;2080519;28;20184;-74
2022/01/10 01:05:48;;;;;;;3.43;2.10;;;-0.70;99.90;;;;;;2081064;28;20177;-76
2022/01/10 01:06:49;;;;;;;4.07;1.95;;;-0.70;99.90;;;;;;2081618;28;20174;-74
2022/01/10 01:07:50;;;;;;;6.30;1.90;;;-0.70;99.90;;;;;;2081435;28;20213;-74
2022/01/10 01:08:57;;;;;;;3.72;2.00;;;-0.70;99.90;;;;;;2081488;28;20177;-74
2022/01/10 01:12:33;;;;;;;4.33;2.07;;;-0.80;99.90;;;;;;2081054;28;20676;-74
2022/01/10 01:13:39;;;;;;;3.13;1.92;;;-0.70;99.90;;;;;;2081514;28;20658;-74
2022/01/10 01:17:10;;;;;;;2.85;2.10;;;-0.80;99.90;;;;;;2080901;28;20203;-73
2022/01/10 01:18:18;;;;;;;4.20;2.08;;;-0.90;99.90;;;;;;2097338;28;20171;-73
2022/01/10 01:20:30;;;;;;;3.90;2.30;;;-1.00;99.90;;;;;;2081221;28;20187;-73
2022/01/10 01:24:09;;;;;;;4.53;1.92;;;-1.00;99.90;;;;;;2084274;28;21240;-74
2022/01/10 01:25:11;;;;;;;3.37;2.03;;;-1.10;99.90;;;;;;2080433;28;20204;-74
2022/01/10 01:26:14;;;;;;;5.63;2.50;;;-1.00;99.90;;;;;;2080838;28;20185;-74
2022/01/10 01:27:14;;;;;;;7.40;2.42;;;-1.00;99.90;;;;;;2081199;28;20176;-74
2022/01/10 01:28:15;;;;;;;7.67;2.90;;;-1.00;99.90;;;;;;2081442;28;20195;-74
2022/01/10 01:29:21;;;;;;;3.65;1.92;;;-1.10;99.90;;;;;;2089079;28;20168;-74
2022/01/10 01:30:22;;;;;;;4.80;2.20;;;-1.00;99.90;;;;;;2089245;28;20267;-74
2022/01/10 01:31:23;;;;;;;3.37;1.77;;;-0.90;99.90;;;;;;2088902;28;20177;-74
2022/01/10 01:32:24;;;;;;;3.45;1.90;;;-0.90;99.90;;;;;;2080810;28;20646;-74
2022/01/10 01:33:25;;;;;;;2.70;1.90;;;-0.90;99.90;;;;;;2072617;28;20178;-74
2022/01/10 01:34:26;;;;;;;7.77;2.23;;;-0.90;99.90;;;;;;2080887;28;20817;-74
2022/01/10 01:35:27;;;;;;;3.53;2.10;;;-0.80;99.90;;;;;;2096908;28;20641;-73
2022/01/10 01:36:30;;;;;;;6.28;2.22;;;-0.80;99.90;;;;;;2097495;28;20222;-74
2022/01/10 01:37:31;;;;;;;4.75;2.00;;;-0.80;99.90;;;;;;2089484;28;20176;-73
2022/01/10 01:38:33;;;;;;;3.07;2.00;;;-0.90;99.90;;;;;;2088879;28;20189;-74
2022/01/10 01:39:35;;;;;;;5.75;1.90;;;-0.90;99.90;;;;;;2088914;28;20501;-74
2022/01/10 01:40:42;;;;;;;2.97;1.90;;;-1.00;99.90;;;;;;2089773;28;20202;-74
2022/01/10 01:41:43;;;;;;;1.90;1.52;;;-1.10;99.90;;;;;;2089053;28;20173;-74
2022/01/10 01:42:44;;;;;;;2.38;1.70;;;-1.00;99.90;;;;;;2081542;28;20250;-73
2022/01/10 01:43:47;;;;;;;2.73;1.43;;;-1.00;99.90;;;;;;2089173;28;20180;-73
2022/01/10 01:44:48;;;;;;;2.25;1.30;;;-1.00;99.90;;;;;;2088668;28;20229;-73
2022/01/10 01:45:50;;;;;;;3.70;1.15;;;-1.00;99.90;;;;;;2097392;28;20263;-74
2022/01/10 01:46:51;;;;;;;3.92;1.58;;;-1.00;99.90;;;;;;2097046;28;20167;-73
2022/01/10 01:47:53;;;;;;;2.20;1.17;;;-0.90;99.90;;;;;;2097205;28;20199;-73
2022/01/10 01:48:54;;;;;;;3.78;1.35;;;-0.90;99.90;;;;;;2097129;28;20172;-73
2022/01/10 01:49:58;;;;;;;2.63;1.43;;;-0.90;99.90;;;;;;2080836;28;20742;-74
2022/01/10 01:50:58;;;;;;;4.93;1.20;;;-0.90;99.90;;;;;;2089607;28;20645;-74
2022/01/10 01:51:59;;;;;;;4.90;1.40;;;-0.80;99.90;;;;;;2088880;28;20184;-74
2022/01/10 01:53:00;;;;;;;4.10;1.60;;;-0.80;99.90;;;;;;2089079;28;20172;-74
2022/01/10 01:54:02;;;;;;;5.25;2.05;;;-0.80;99.90;;;;;;2089208;28;20172;-74
2022/01/10 01:55:04;;;;;;;3.78;2.95;;;-0.90;99.90;;;;;;2089012;28;20710;-74
2022/01/10 01:56:07;;;;;;;5.43;3.35;;;-1.10;99.90;;;;;;2088930;28;20306;-74
2022/01/10 01:57:08;;;;;;;5.70;2.40;;;-1.20;99.90;;;;;;2080983;28;20212;-75
2022/01/10 01:58:09;;;;;;;5.97;2.30;;;-1.30;99.90;;;;;;2080845;28;20176;-74
2022/01/10 01:59:12;;;;;;;3.38;2.25;;;-1.30;99.90;;;;;;2089355;28;20415;-75
2022/01/10 02:00:13;;;;;;;4.22;2.17;;;-1.30;99.90;;;;;;2089924;28;20215;-74
2022/01/10 02:01:18;;;;;;;1.67;1.48;;;-1.10;99.90;;;;;;2089024;28;20233;-74
2022/01/10 02:02:19;;;;;;;3.63;1.85;;;-1.00;99.90;;;;;;2081424;28;20226;-75
2022/01/10 02:03:20;;;;;;;3.92;1.73;;;-1.00;99.90;;;;;;2081585;28;20212;-74
2022/01/10 02:04:21;;;;;;;2.87;1.70;;;-1.00;99.90;;;;;;2089155;28;20172;-74
2022/01/10 02:05:22;;;;;;;3.73;1.90;;;-0.90;99.90;;;;;;2089228;28;20172;-74
2022/01/10 02:06:23;;;;;;;3.22;1.70;;;-0.90;99.90;;;;;;2088953;28;20430;-74
2022/01/10 02:07:24;;;;;;;4.87;2.00;;;-1.00;99.90;;;;;;2097370;28;20182;-74
2022/01/10 02:08:24;;;;;;;2.90;1.93;;;-0.90;99.90;;;;;;2089133;28;20275;-74
2022/01/10 02:09:26;;;;;;;5.13;1.73;;;-0.90;99.90;;;;;;2080690;28;20204;-75
2022/01/10 02:10:27;;;;;;;3.33;1.55;;;-0.90;99.90;;;;;;2089264;28;20214;-74
2022/01/10 02:11:28;;;;;;;2.87;1.50;;;-0.90;99.90;;;;;;2096914;28;20180;-74
2022/01/10 02:12:28;;;;;;;2.97;1.67;;;-0.70;99.90;;;;;;2089042;28;20578;-74
2022/01/10 02:13:29;;;;;;;3.73;1.70;;;-0.70;99.90;;;;;;2080872;28;20173;-74
2022/01/10 02:14:30;;;;;;;6.33;2.10;;;-0.80;99.90;;;;;;2072519;28;20185;-74
2022/01/10 02:15:43;;;;;;;4.30;1.63;;;-0.80;99.90;;;;;;2080800;28;20181;-74
2022/01/10 02:16:52;;;;;;;6.60;1.90;;;-0.80;99.90;;;;;;2088711;28;20185;-75
2022/01/10 02:17:59;;;;;;;3.83;2.00;;;-0.80;99.90;;;;;;2099469;28;20723;-74
2022/01/10 02:18:59;;;;;;;3.40;1.33;;;-0.80;99.90;;;;;;2095246;28;20223;-74
2022/01/10 02:20:03;;;;;;;3.53;1.70;;;-0.80;99.90;;;;;;2089643;28;20176;-74
2022/01/10 02:21:05;;;;;;;3.63;2.10;;;-0.80;99.90;;;;;;2088936;28;20608;-74
2022/01/10 02:22:06;;;;;;;6.50;2.78;;;-0.80;99.90;;;;;;2096972;28;20270;-74
2022/01/10 02:23:06;;;;;;;4.40;1.77;;;-0.70;99.90;;;;;;2097186;28;20601;-75
2022/01/10 02:24:07;;;;;;;2.43;1.80;;;-0.80;99.90;;;;;;2088967;28;20191;-75
2022/01/10 02:25:08;;;;;;;3.50;1.80;;;-0.80;99.90;;;;;;2088767;28;20180;-74
2022/01/10 02:26:09;;;;;;;4.47;1.90;;;-0.80;99.90;;;;;;2088849;28;20621;-74
2022/01/10 02:27:10;;;;;;;6.10;2.27;;;-0.70;99.90;;;;;;2088973;28;20184;-75
2022/01/10 02:28:11;;;;;;;2.87;1.90;;;-0.70;99.90;;;;;;2080548;28;20613;-74
2022/01/10 02:29:12;;;;;;;3.40;1.70;;;-0.60;99.90;;;;;;2088917;28;20176;-74
2022/01/10 02:30:12;;;;;;;5.00;1.63;;;-0.70;99.90;;;;;;2088894;28;20512;-75
2022/01/10 02:31:14;;;;;;;2.63;1.60;;;-0.60;99.90;;;;;;2089627;28;20202;-75
2022/01/10 02:32:15;;;;;;;3.28;1.80;;;-0.70;99.90;;;;;;2088712;28;20192;-75
2022/01/10 02:33:16;;;;;;;2.05;1.67;;;-0.70;99.90;;;;;;2088938;28;20181;-74
2022/01/10 02:34:19;;;;;;;4.93;1.80;;;-0.70;99.90;;;;;;2097252;28;20251;-75
2022/01/10 02:35:35;;;;;;;4.75;2.05;;;-0.60;99.90;;;;;;2089183;28;20202;-75
2022/01/10 02:36:36;;;;;;;4.13;1.73;;;-0.70;99.90;;;;;;2088650;28;20215;-74
2022/01/10 02:37:37;;;;;;;4.28;1.52;;;-0.60;99.90;;;;;;2089296;28;20173;-74
2022/01/10 02:39:08;;;;;;;4.13;1.80;;;-0.60;99.90;;;;;;2088694;28;20210;-74
2022/01/10 02:40:13;;;;;;;2.97;1.67;;;-0.60;99.90;;;;;;2092879;28;20175;-74
2022/01/10 02:41:26;;;;;;;3.65;1.77;;;-0.70;99.90;;;;;;2088813;28;20251;-74
2022/01/10 02:42:27;;;;;;;3.28;1.70;;;-0.70;99.90;;;;;;2082648;28;20239;-74
2022/01/10 02:43:28;;;;;;;5.97;2.00;;;-0.70;99.90;;;;;;2081015;28;20193;-74
2022/01/10 02:44:29;;;;;;;4.07;1.60;;;-0.80;99.90;;;;;;2090099;28;20172;-75
2022/01/10 02:45:30;;;;;;;3.80;1.85;;;-0.70;99.90;;;;;;2090406;28;20616;-74
2022/01/10 02:46:35;;;;;;;2.33;1.30;;;-0.70;99.90;;;;;;2090330;28;20195;-75
2022/01/10 02:47:37;;;;;;;3.80;1.40;;;-0.60;99.90;;;;;;2090264;28;20180;-74
2022/01/10 02:48:37;;;;;;;1.90;1.42;;;-0.70;99.90;;;;;;2090355;28;20181;-75
2022/01/10 02:49:38;;;;;;;6.27;1.60;;;-0.70;99.90;;;;;;2090175;28;20789;-74
2022/01/10 02:50:39;;;;;;;3.43;1.77;;;-0.80;99.90;;;;;;2090253;28;20600;-75
2022/01/10 02:51:40;;;;;;;3.23;1.40;;;-0.80;99.90;;;;;;2090194;28;20176;-74
2022/01/10 02:52:42;;;;;;;5.78;1.60;;;-0.80;99.90;;;;;;2098373;28;20582;-74
2022/01/10 02:53:42;;;;;;;3.85;1.88;;;-0.80;99.90;;;;;;2098533;28;20249;-75
2022/01/10 02:54:43;;;;;;;2.23;1.57;;;-0.70;99.90;;;;;;2081775;28;20189;-74
2022/01/10 02:55:44;;;;;;;4.20;1.50;;;-0.70;99.90;;;;;;2090291;28;20279;-74
2022/01/10 02:56:54;;;;;;;5.40;1.60;;;-0.70;99.90;;;;;;2090213;28;20692;-75
2022/01/10 02:57:55;;;;;;;5.88;1.90;;;-0.70;99.90;;;;;;2083192;28;20179;-75
2022/01/10 02:58:55;;;;;;;2.20;1.43;;;-0.80;99.90;;;;;;2082289;28;20259;-74
2022/01/10 02:59:58;;;;;;;2.50;1.50;;;-0.80;99.90;;;;;;2090105;28;20522;-74
2022/01/10 03:00:59;;;;;;;2.60;1.50;;;-0.70;99.90;;;;;;2090040;28;20259;-75
2022/01/10 03:01:59;;;;;;;3.97;1.67;;;-0.80;99.90;;;;;;2083243;28;20663;-74
2022/01/10 03:03:06;;;;;;;6.83;1.63;;;-0.80;99.90;;;;;;2091067;28;20223;-74
2022/01/10 03:04:06;;;;;;;4.38;1.60;;;-0.80;99.90;;;;;;2090944;28;20173;-74
2022/01/10 03:05:09;;;;;;;3.97;1.50;;;-0.80;99.90;;;;;;2089884;28;20549;-75
2022/01/10 03:06:11;;;;;;;3.30;1.42;;;-0.70;99.90;;;;;;2091012;28;20176;-75
2022/01/10 03:07:18;;;;;;;2.67;1.35;;;-0.80;99.90;;;;;;2090236;28;20173;-74
2022/01/10 03:08:19;;;;;;;2.88;1.48;;;-0.90;99.90;;;;;;2083250;28;20181;-75
2022/01/10 03:09:20;;;;;;;2.53;1.47;;;-0.80;99.90;;;;;;2082338;28;20236;-74
2022/01/10 03:10:21;;;;;;;4.00;1.80;;;-0.80;99.90;;;;;;2090338;28;20250;-74
2022/01/10 03:11:21;;;;;;;5.80;2.00;;;-0.80;99.90;;;;;;2106932;28;20239;-74
2022/01/10 03:12:23;;;;;;;3.03;1.50;;;-0.80;99.90;;;;;;2098341;28;20207;-75
2022/01/10 03:13:24;;;;;;;3.70;1.67;;;-0.80;99.90;;;;;;2098480;28;20191;-74
2022/01/10 03:14:24;;;;;;;4.80;1.70;;;-0.70;99.90;;;;;;2098524;28;20676;-74
2022/01/10 03:15:26;;;;;;;4.60;1.93;;;-0.70;99.90;;;;;;2089771;28;20180;-74
2022/01/10 03:16:27;;;;;;;6.80;1.92;;;-0.60;99.90;;;;;;2106876;28;20245;-74
2022/01/10 03:17:28;;;;;;;3.67;1.87;;;-0.70;99.90;;;;;;2106628;28;20618;-75
2022/01/10 03:18:29;;;;;;;4.07;2.20;;;-0.70;99.90;;;;;;2090207;28;20187;-75
2022/01/10 03:19:30;;;;;;;2.72;1.77;;;-0.70;99.90;;;;;;2090131;28;20655;-74
2022/01/10 03:20:31;;;;;;;5.85;2.17;;;-0.70;99.90;;;;;;2090097;28;20190;-74
2022/01/10 03:21:33;;;;;;;6.00;2.30;;;-0.70;99.90;;;;;;2090141;28;20179;-74
2022/01/10 03:22:33;;;;;;;3.13;1.90;;;-0.70;99.90;;;;;;2090476;28;20192;-74
2022/01/10 03:23:34;;;;;;;4.70;2.30;;;-0.70;99.90;;;;;;2090794;28;20177;-74
2022/01/10 03:24:35;;;;;;;6.67;2.20;;;-0.70;99.90;;;;;;2090629;28;20556;-74
2022/01/10 03:25:36;;;;;;;6.57;2.42;;;-0.70;99.90;;;;;;2081874;28;20263;-76
2022/01/10 03:26:37;;;;;;;5.33;2.17;;;-0.70;99.90;;;;;;2089958;28;20219;-74
2022/01/10 03:27:37;;;;;;;5.00;2.40;;;-0.70;99.90;;;;;;2098331;28;20188;-74
2022/01/10 03:28:38;;;;;;;3.47;2.10;;;-0.70;99.90;;;;;;2090122;28;20180;-74
2022/01/10 03:29:39;;;;;;;4.70;1.87;;;-0.70;99.90;;;;;;2090789;28;20619;-74
2022/01/10 03:30:40;;;;;;;5.47;2.10;;;-0.60;99.90;;;;;;2089938;28;20192;-74
2022/01/10 03:31:40;;;;;;;3.42;2.30;;;-0.60;99.90;;;;;;2089999;28;20188;-74
2022/01/10 03:32:42;;;;;;;4.33;1.87;;;-0.70;99.90;;;;;;2090520;28;20258;-75
2022/01/10 03:33:43;;;;;;;8.30;3.05;;;-0.70;99.90;;;;;;2089942;28;20188;-75
2022/01/10 03:34:44;;;;;;;4.77;2.30;;;-0.70;99.90;;;;;;2089471;28;20173;-75
2022/01/10 03:35:44;;;;;;;5.70;2.17;;;-0.70;99.90;;;;;;2090633;28;20200;-74
2022/01/10 03:36:45;;;;;;;4.00;2.03;;;-0.70;99.90;;;;;;2090512;28;20266;-74
2022/01/10 03:37:46;;;;;;;3.58;1.75;;;-0.70;99.90;;;;;;2090595;28;20173;-74
2022/01/10 03:38:47;;;;;;;3.97;1.83;;;-0.70;99.90;;;;;;2090555;28;20224;-74
2022/01/10 03:39:47;;;;;;;4.83;2.00;;;-0.70;99.90;;;;;;2090194;28;20165;-74
2022/01/10 03:40:48;;;;;;;3.17;2.30;;;-0.70;99.90;;;;;;2090023;28;20165;-74
2022/01/10 03:41:49;;;;;;;4.37;2.30;;;-0.80;99.90;;;;;;2090531;28;20173;-74
2022/01/10 03:42:50;;;;;;;3.03;1.90;;;-0.90;99.90;;;;;;2089966;28;20607;-74
2022/01/10 03:43:50;;;;;;;5.63;2.53;;;-0.80;99.90;;;;;;2081850;28;20850;-74
2022/01/10 03:44:51;;;;;;;3.33;2.13;;;-0.80;99.90;;;;;;2081470;28;20255;-74
2022/01/10 03:45:52;;;;;;;3.85;1.98;;;-0.80;99.90;;;;;;2089960;28;20172;-74
2022/01/10 03:46:53;;;;;;;3.63;1.83;;;-0.80;99.90;;;;;;2090305;28;20169;-74
2022/01/10 03:47:54;;;;;;;2.93;1.90;;;-0.70;99.90;;;;;;2089835;28;20177;-74
2022/01/10 03:48:55;;;;;;;3.70;1.90;;;-0.80;99.90;;;;;;2081712;28;20169;-74
2022/01/10 03:49:55;;;;;;;3.47;1.70;;;-0.80;99.90;;;;;;2081669;28;20165;-74
2022/01/10 03:50:57;;;;;;;4.37;1.83;;;-0.70;99.90;;;;;;2089945;28;20814;-74
2022/01/10 03:51:59;;;;;;;3.03;1.60;;;-0.80;99.90;;;;;;2089903;28;20248;-74
2022/01/10 03:53:00;;;;;;;6.80;2.53;;;-0.70;99.90;;;;;;2089938;28;20184;-74
2022/01/10 03:54:00;;;;;;;3.00;1.87;;;-0.80;99.90;;;;;;2090696;28;20207;-74
2022/01/10 03:55:01;;;;;;;5.30;2.23;;;-0.80;99.90;;;;;;2090322;28;20172;-74
2022/01/10 03:56:03;;;;;;;2.58;1.67;;;-0.70;99.90;;;;;;2090322;28;20639;-74
2022/01/10 03:57:04;;;;;;;5.53;1.77;;;-0.80;99.90;;;;;;2090326;28;20178;-74
2022/01/10 03:58:05;;;;;;;6.03;1.70;;;-0.80;99.90;;;;;;2090334;28;20176;-74
2022/01/10 03:59:05;;;;;;;4.23;2.07;;;-0.80;99.90;;;;;;2089757;28;20544;-74
2022/01/10 04:00:09;;;;;;;7.37;1.77;;;-0.80;99.90;;;;;;2081508;28;20268;-74
2022/01/10 04:01:10;;;;;;;3.67;1.50;;;-0.70;99.90;;;;;;2090099;28;20192;-74
2022/01/10 04:02:10;;;;;;;2.78;1.60;;;-0.70;99.90;;;;;;2089691;28;20204;-73
2022/01/10 04:03:11;;;;;;;6.43;2.10;;;-0.70;99.90;;;;;;2089815;28;20742;-74
2022/01/10 04:04:12;;;;;;;4.30;1.93;;;-0.60;99.90;;;;;;2089559;28;20183;-74
2022/01/10 04:05:13;;;;;;;4.70;1.97;;;-0.50;99.90;;;;;;2089639;28;20196;-74
2022/01/10 04:06:13;;;;;;;2.93;1.50;;;-0.50;99.90;;;;;;2090330;28;20264;-74
2022/01/10 04:07:16;;;;;;;4.10;1.60;;;-0.60;99.90;;;;;;2081332;28;20551;-74
2022/01/10 04:08:17;;;;;;;3.67;1.88;;;-0.60;99.90;;;;;;2081799;28;20209;-74
2022/01/10 04:09:19;;;;;;;4.93;1.43;;;-0.50;99.90;;;;;;2090402;28;20525;-74
2022/01/10 04:10:20;;;;;;;2.83;1.92;;;-0.50;99.90;;;;;;2090202;28;20701;-75
2022/01/10 04:11:20;;;;;;;3.17;1.70;;;-0.60;99.90;;;;;;2090336;28;20202;-74
2022/01/10 04:12:21;;;;;;;3.47;1.73;;;-0.70;99.90;;;;;;2089592;28;20188;-74
2022/01/10 04:13:23;;;;;;;2.83;1.43;;;-0.70;99.90;;;;;;2089753;28;20169;-74
2022/01/10 04:14:24;;;;;;;6.40;1.60;;;-0.70;99.90;;;;;;2089586;28;20647;-74
2022/01/10 04:15:25;;;;;;;5.28;1.73;;;-0.80;99.90;;;;;;2089620;28;20180;-74
2022/01/10 04:16:25;;;;;;;4.17;1.77;;;-0.80;99.90;;;;;;2090194;28;20239;-75
2022/01/10 04:17:26;;;;;;;3.67;1.80;;;-0.80;99.90;;;;;;2090149;28;20234;-74
2022/01/10 04:18:27;;;;;;;3.50;1.53;;;-0.80;99.90;;;;;;2090148;28;20196;-74
2022/01/10 04:19:27;;;;;;;2.97;1.60;;;-0.70;99.90;;;;;;2090364;28;20168;-74
2022/01/10 04:20:28;;;;;;;3.87;1.70;;;-0.70;99.90;;;;;;2090296;28;20191;-74
2022/01/10 04:21:29;;;;;;;7.57;1.90;;;-0.70;99.90;;;;;;2089624;28;20177;-74
2022/01/10 04:22:30;;;;;;;4.30;1.80;;;-0.80;99.90;;;;;;2089660;28;20230;-74
2022/01/10 04:23:31;;;;;;;4.40;1.80;;;-0.80;99.90;;;;;;2090208;28;20208;-74
2022/01/10 04:24:31;;;;;;;4.03;1.53;;;-0.90;99.90;;;;;;2089415;28;20179;-74
2022/01/10 04:25:32;;;;;;;2.90;1.33;;;-0.90;99.90;;;;;;2089663;28;20457;-74
2022/01/10 04:26:33;;;;;;;5.97;1.30;;;-0.90;99.90;;;;;;2081158;28;20189;-74
2022/01/10 04:27:33;;;;;;;6.70;1.70;;;-0.90;99.90;;;;;;2081363;28;20184;-74
2022/01/10 04:28:34;;;;;;;6.43;1.77;;;-0.90;99.90;;;;;;2090178;28;20187;-74
2022/01/10 04:29:35;;;;;;;5.07;1.60;;;-0.90;99.90;;;;;;2090191;28;20176;-74
2022/01/10 04:30:36;;;;;;;4.10;1.40;;;-0.90;99.90;;;;;;2089474;28;20180;-74
2022/01/10 04:31:37;;;;;;;2.13;1.45;;;-0.90;99.90;;;;;;2089317;28;20195;-74
2022/01/10 04:32:39;;;;;;;5.80;2.50;;;-0.80;99.90;;;;;;2097361;28;20238;-74
2022/01/10 04:33:39;;;;;;;6.45;1.90;;;-0.80;99.90;;;;;;2089441;28;20171;-74
2022/01/10 04:34:40;;;;;;;7.47;1.40;;;-0.90;99.90;;;;;;2089205;28;20177;-73
2022/01/10 04:35:41;;;;;;;2.67;1.23;;;-0.90;99.90;;;;;;2089361;28;20281;-74
2022/01/10 04:36:43;;;;;;;4.73;1.53;;;-0.90;99.90;;;;;;2089227;28;20208;-74
2022/01/10 04:37:44;;;;;;;4.28;1.90;;;-0.90;99.90;;;;;;2090047;28;20169;-74
2022/01/10 04:38:45;;;;;;;5.30;1.40;;;-0.90;99.90;;;;;;2090157;28;20164;-74
2022/01/10 04:39:45;;;;;;;6.05;1.70;;;-0.90;99.90;;;;;;2089200;28;20246;-74
2022/01/10 04:40:46;;;;;;;4.37;1.73;;;-0.90;99.90;;;;;;2089139;28;20687;-74
2022/01/10 04:41:47;;;;;;;3.43;1.63;;;-0.80;99.90;;;;;;2089137;28;20673;-74
2022/01/10 04:42:47;;;;;;;5.60;2.07;;;-0.80;99.90;;;;;;2089069;28;20219;-74
2022/01/10 04:43:48;;;;;;;3.47;1.47;;;-0.70;99.90;;;;;;2089085;28;20263;-74
2022/01/10 04:44:49;;;;;;;2.33;1.40;;;-0.70;99.90;;;;;;2080856;28;20256;-74
2022/01/10 04:45:50;;;;;;;6.82;1.80;;;-0.60;99.90;;;;;;2080935;28;20203;-74
2022/01/10 04:46:51;;;;;;;4.10;1.30;;;-0.60;99.90;;;;;;2080796;28;20181;-74
2022/01/10 04:47:52;;;;;;;5.47;1.75;;;-0.70;99.90;;;;;;2089397;28;20226;-74
2022/01/10 04:48:53;;;;;;;2.53;1.90;;;-0.70;99.90;;;;;;2097301;28;20172;-74
2022/01/10 04:52:10;;;;;;;6.57;2.17;;;-0.70;99.90;;;;;;2089650;28;20199;-74
2022/01/10 04:53:10;;;;;;;3.50;1.87;;;-0.70;99.90;;;;;;2089751;28;20181;-74
2022/01/10 04:54:11;;;;;;;3.50;2.07;;;-0.70;99.90;;;;;;2089815;28;20176;-73
2022/01/10 04:55:13;;;;;;;4.77;1.93;;;-0.70;99.90;;;;;;2089124;28;20172;-74
2022/01/10 04:56:17;;;;;;;4.10;2.05;;;-0.70;99.90;;;;;;2089260;28;20212;-74
2022/01/10 04:57:17;;;;;;;3.67;1.80;;;-0.70;99.90;;;;;;2088819;28;20181;-73
2022/01/10 04:58:18;;;;;;;5.07;1.97;;;-0.70;99.90;;;;;;2089070;28;20719;-74
2022/01/10 04:59:19;;;;;;;6.30;1.90;;;-0.60;99.90;;;;;;2089013;28;20643;-73
2022/01/10 05:00:20;;;;;;;3.60;1.77;;;-0.60;99.90;;;;;;2089060;28;20549;-73
2022/01/10 05:01:21;;;;;;;8.43;2.00;;;-0.60;99.90;;;;;;2089689;28;20176;-74
2022/01/10 05:02:22;;;;;;;4.13;1.57;;;-0.60;99.90;;;;;;2088845;28;20607;-74
2022/01/10 05:03:23;;;;;;;5.57;2.45;;;-0.60;99.90;;;;;;2080819;28;20177;-74
2022/01/10 05:04:24;;;;;;;3.53;2.07;;;-0.70;99.90;;;;;;2089031;28;20180;-73
2022/01/10 05:05:24;;;;;;;4.30;1.90;;;-0.60;99.90;;;;;;2097167;28;20187;-73
2022/01/10 05:06:25;;;;;;;6.63;2.27;;;-0.60;99.90;;;;;;2088518;28;20173;-74
2022/01/10 05:07:26;;;;;;;5.33;2.80;;;-0.70;99.90;;;;;;2088959;28;20231;-74
2022/01/10 05:08:27;;;;;;;5.77;2.30;;;-0.70;99.90;;;;;;2088911;28;20180;-74
2022/01/10 05:09:27;;;;;;;6.10;2.67;;;-0.70;99.90;;;;;;2089032;28;20188;-73
2022/01/10 05:10:28;;;;;;;4.07;2.60;;;-0.60;99.90;;;;;;2089746;28;20164;-74
2022/01/10 05:11:29;;;;;;;6.17;3.40;;;-0.60;99.90;;;;;;2089625;28;20187;-74
2022/01/10 05:12:30;;;;;;;12.47;4.73;;;-0.70;99.90;;;;;;2089397;28;20196;-74
2022/01/10 05:13:30;;;;;;;7.97;4.27;;;-0.70;99.90;;;;;;2089453;28;20652;-74
2022/01/10 05:14:33;;;;;;;5.03;4.00;;;-0.70;99.90;;;;;;2089226;28;20204;-74
2022/01/10 05:15:33;;;;;;;9.00;4.30;;;-0.70;99.90;;;;;;2089055;28;20246;-74
2022/01/10 05:16:34;;;;;;;5.07;3.27;;;-0.60;99.90;;;;;;2089325;28;20337;-74
2022/01/10 05:17:35;;;;;;;7.97;4.40;;;-0.60;99.90;;;;;;2089726;28;20172;-74
2022/01/10 05:18:38;;;;;;;5.97;3.93;;;-0.60;99.90;;;;;;2088908;28;20184;-74
2022/01/10 05:19:39;;;;;;;11.52;6.88;;;-0.60;99.90;;;;;;2088881;28;20506;-74
2022/01/10 05:20:40;;;;;;;6.20;4.53;;;-0.60;99.90;;;;;;2089512;28;20644;-74
2022/01/10 05:21:40;;;;;;;7.60;4.60;;;-0.70;99.90;;;;;;2089000;28;20194;-74
2022/01/10 05:22:41;;;;;;;7.90;4.80;;;-0.70;99.90;;;;;;2080736;28;20196;-74
2022/01/10 05:23:42;;;;;;;10.70;4.33;;;-0.70;99.90;;;;;;2089040;28;20169;-74
2022/01/10 05:24:42;;;;;;;6.80;4.10;;;-0.70;99.90;;;;;;2088848;28;20214;-74
2022/01/10 05:25:44;;;;;;;5.90;3.87;;;-0.60;99.90;;;;;;2080726;28;20211;-74
2022/01/10 05:26:45;;;;;;;7.32;4.43;;;-0.60;99.90;;;;;;2088909;28;20180;-73
2022/01/10 05:27:46;;;;;;;6.83;4.00;;;-0.60;99.90;;;;;;2089071;28;20255;-74
2022/01/10 05:28:46;;;;;;;5.07;3.10;;;-0.70;99.90;;;;;;2089728;28;20172;-74
2022/01/10 05:29:47;;;;;;;7.60;3.90;;;-0.70;99.90;;;;;;2088792;28;20173;-73
2022/01/10 05:30:50;;;;;;;10.57;4.03;;;-0.70;99.90;;;;;;2088907;28;20197;-73